Fire Dart — FIRE — position and weather

sailwx.info

Track history (hours):
 
Tides and Currents Weather Stations Pressure Air Temp Water Temp Dewpoint Dewpoint Depression Visibility Wind Speed Wind Dir Waves Ship Positions

Fire Dart

Last reported at 2018-Jan-23 20:19 UTC. Time now 2018-Jan-24 01:59 UTC.
Position N 25°47' W 080°11'.

Length 14 m.

Type: High speed craft. MMSI: 235094361.

Date/timePositionNaut miles runAvg speedWind from/ knotsBaromVisibWave heightAir tempDewpointWater temp
2018-Jan-23 20:19N 25°47' W 080°11'515.3
2018-Jan-23 20:00N 25°42' W 080°14'3 5.6
2018-Jan-23 19:30N 25°41' W 080°11'5 4.2
2018-Jan-23 18:12N 25°47' W 080°11'210.9
2018-Jan-23 18:00N 25°45' W 080°11'2 1.9
2018-Jan-23 16:52N 25°47' W 080°11'0 0.0
2018-Jan-23 16:25N 25°47' W 080°11'0 0.0
2018-Jan-23 15:58N 25°47' W 080°11'0 0.0
2018-Jan-23 13:19N 25°47' W 080°11'0 0.0
2018-Jan-23 12:59N 25°47' W 080°11'82018925.9
2018-Jan-23 12:56N 29°41' W 094°59'820969.3
2018-Jan-23 12:05N 25°47' W 080°11'8201256.9
2018-Jan-23 11:26N 29°41' W 094°59'0 0.0
2018-Jan-23 10:08N 29°41' W 094°59'0 0.0
2018-Jan-23 09:56N 29°41' W 094°59'0 0.0
2018-Jan-23 09:26N 29°41' W 094°59'0 0.0
2018-Jan-23 07:38N 29°41' W 094°59'0 0.0
2018-Jan-23 07:26N 29°41' W 094°59'820831.4
2018-Jan-23 06:27N 25°47' W 080°11'4 8.1
2018-Jan-23 05:59N 25°51' W 080°10'8201279.5
2018-Jan-23 05:20N 29°41' W 094°59'0 0.0
2018-Jan-23 04:56N 29°41' W 094°59'82064.6
2018-Jan-22 16:15N 25°47' W 080°11'0 0.0
2018-Jan-22 14:35N 25°47' W 080°11'0 2.1
2018-Jan-22 14:28N 25°47' W 080°11'8201109.2
2018-Jan-22 13:44N 29°41' W 094°59'0 0.0
2018-Jan-22 13:14N 29°41' W 094°59'0 0.0
2018-Jan-22 12:53N 29°41' W 094°59'0 0.0
2018-Jan-22 12:26N 29°41' W 094°59'8202218.2
2018-Jan-22 12:04N 25°47' W 080°11'0 0.0
2018-Jan-22 12:00N 25°47' W 080°11'82011141.3
2018-Jan-22 11:56N 29°41' W 094°59'0 0.0
2018-Jan-22 11:17N 29°41' W 094°59'0 0.0
2018-Jan-22 10:56N 29°41' W 094°59'0 0.0
2018-Jan-22 10:26N 29°41' W 094°59'0 0.0
2018-Jan-22 09:50N 29°41' W 094°59'0 0.0
2018-Jan-22 09:26N 29°41' W 094°59'0 0.0
2018-Jan-22 08:56N 29°41' W 094°59'0 0.0
2018-Jan-22 08:26N 29°41' W 094°59'8202174.1
2018-Jan-22 08:03N 25°47' W 080°11'0 0.0
2018-Jan-22 08:00N 25°47' W 080°11'8206634.7
2018-Jan-22 07:53N 29°41' W 094°59'0 0.0
2018-Jan-22 06:53N 29°41' W 094°59'0 0.0
2018-Jan-22 06:02N 29°41' W 094°59'0 0.0
2018-Jan-22 05:50N 29°41' W 094°59'0 0.0
2018-Jan-22 05:26N 29°41' W 094°59'0 0.0
2018-Jan-22 04:44N 29°41' W 094°59'0 0.0
2018-Jan-22 04:26N 29°41' W 094°59'0 0.0
2018-Jan-22 03:56N 29°41' W 094°59'0 0.0
2018-Jan-22 03:26N 29°41' W 094°59'0 0.0
2018-Jan-22 02:50N 29°41' W 094°59'0 0.0
2018-Jan-22 02:20N 29°41' W 094°59'0 0.0
2018-Jan-22 01:50N 29°41' W 094°59'0 0.0
2018-Jan-22 00:56N 29°41' W 094°59'820512.6
2018-Jan-21 23:20N 25°47' W 080°11'0 0.9
2018-Jan-21 22:59N 25°47' W 080°11'8203168.9
2018-Jan-21 22:44N 29°41' W 094°59'8203505.9
2018-Jan-21 22:30N 25°47' W 080°11'4 7.1
2018-Jan-21 21:59N 25°44' W 080°11'1 1.4
2018-Jan-21 21:28N 25°43' W 080°12'821337.7
2018-Jan-21 19:02N 29°41' W 094°59'0 0.0
2018-Jan-21 18:50N 29°41' W 094°59'0 0.0
2018-Jan-21 18:14N 29°41' W 094°59'0 0.0
2018-Jan-21 17:56N 29°41' W 094°59'820195.0
2018-Jan-21 13:44N 25°47' W 080°11'0 0.0
2018-Jan-21 13:29N 25°47' W 080°11'0 0.0
2018-Jan-21 12:56N 25°47' W 080°11'0 0.0
2018-Jan-21 00:39N 25°47' W 080°11'0 0.0
2018-Jan-20 23:00N 25°47' W 080°11'610.2
2018-Jan-20 22:22N 25°41' W 080°10'0 0.0
2018-Jan-20 21:37N 25°41' W 080°10'0 2.9
2018-Jan-20 21:30N 25°41' W 080°10'612.0
2018-Jan-20 21:00N 25°46' W 080°09'1 1.8
2018-Jan-20 20:30N 25°46' W 080°09'2 0.2
2018-Jan-20 13:00N 25°47' W 080°11'0 0.0
2018-Jan-19 13:25N 25°47' W 080°11'0 0.0
2018-Jan-19 11:32N 25°47' W 080°11'0 0.0
2018-Jan-19 11:29N 25°47' W 080°11'8202759.3
2018-Jan-19 11:11N 29°41' W 094°59'820177.0
2018-Jan-19 06:33N 25°47' W 080°11'0 7.3
2018-Jan-19 06:30N 25°46' W 080°11'82166.5
2018-Jan-18 18:10N 29°41' W 094°59'8201500.1
2018-Jan-18 17:37N 25°47' W 080°11'82124020.4
2018-Jan-18 17:35N 29°41' W 094°60'0 0.2
2018-Jan-18 17:29N 29°41' W 094°60'82349359.2
2018-Jan-18 17:28N 25°46' W 080°09'1 0.9
2018-Jan-18 16:50N 25°46' W 080°09'1 3.6
2018-Jan-18 16:30N 25°47' W 080°09'2 4.1
2018-Jan-18 15:59N 25°47' W 080°11'1 1.1
2018-Jan-18 15:30N 25°47' W 080°11'1 1.2
2018-Jan-18 15:00N 25°47' W 080°11'4 3.9
2018-Jan-18 13:59N 25°51' W 080°09'5 8.9
2018-Jan-18 13:28N 25°47' W 080°11'0 0.3
2018-Jan-18 12:59N 25°47' W 080°11'820328.5
2018-Jan-18 10:30N 29°41' W 094°59'0 0.0
2018-Jan-18 09:09N 29°41' W 094°59'0 0.0
2018-Jan-18 07:54N 29°41' W 094°59'0 0.0
2018-Jan-18 06:57N 29°41' W 094°59'0 0.0
2018-Jan-18 05:03N 29°41' W 094°59'0 0.0
2018-Jan-18 04:39N 29°41' W 094°59'0 0.0
2018-Jan-18 04:27N 29°41' W 094°59'0 0.0
2018-Jan-18 03:57N 29°41' W 094°59'0 0.0
2018-Jan-18 03:21N 29°41' W 094°59'0 0.0
2018-Jan-18 02:51N 29°41' W 094°59'0 0.0
2018-Jan-18 02:21N 29°41' W 094°59'0 0.0
2018-Jan-18 01:57N 29°41' W 094°59'0 0.0
2018-Jan-18 01:21N 29°41' W 094°59'0 0.0
2018-Jan-18 00:57N 29°41' W 094°59'  
Track history (hours):
 
Tides and Currents Weather Stations Pressure Air Temp Water Temp Dewpoint Dewpoint Depression Visibility Wind Speed Wind Dir Waves Ship Positions

Fire Dart

Last reported at 2018-Jan-23 20:19 UTC. Time now 2018-Jan-24 01:59 UTC.
Position N 25°47' W 080°11'.

Length 14 m.

Type: High speed craft. MMSI: 235094361.

Date/timePositionNaut miles runAvg speedWind from/ knotsBaromVisibWave heightAir tempDewpointWater temp
2018-Jan-23 20:19N 25°47' W 080°11'515.3
2018-Jan-23 20:00N 25°42' W 080°14'3 5.6
2018-Jan-23 19:30N 25°41' W 080°11'5 4.2
2018-Jan-23 18:12N 25°47' W 080°11'210.9
2018-Jan-23 18:00N 25°45' W 080°11'2 1.9
2018-Jan-23 16:52N 25°47' W 080°11'0 0.0
2018-Jan-23 16:25N 25°47' W 080°11'0 0.0
2018-Jan-23 15:58N 25°47' W 080°11'0 0.0
2018-Jan-23 13:19N 25°47' W 080°11'0 0.0
2018-Jan-23 12:59N 25°47' W 080°11'82018925.9
2018-Jan-23 12:56N 29°41' W 094°59'820969.3
2018-Jan-23 12:05N 25°47' W 080°11'8201256.9
2018-Jan-23 11:26N 29°41' W 094°59'0 0.0
2018-Jan-23 10:08N 29°41' W 094°59'0 0.0
2018-Jan-23 09:56N 29°41' W 094°59'0 0.0
2018-Jan-23 09:26N 29°41' W 094°59'0 0.0
2018-Jan-23 07:38N 29°41' W 094°59'0 0.0
2018-Jan-23 07:26N 29°41' W 094°59'820831.4
2018-Jan-23 06:27N 25°47' W 080°11'4 8.1
2018-Jan-23 05:59N 25°51' W 080°10'8201279.5
2018-Jan-23 05:20N 29°41' W 094°59'0 0.0
2018-Jan-23 04:56N 29°41' W 094°59'82064.6
2018-Jan-22 16:15N 25°47' W 080°11'0 0.0
2018-Jan-22 14:35N 25°47' W 080°11'0 2.1
2018-Jan-22 14:28N 25°47' W 080°11'8201109.2
2018-Jan-22 13:44N 29°41' W 094°59'0 0.0
2018-Jan-22 13:14N 29°41' W 094°59'0 0.0
2018-Jan-22 12:53N 29°41' W 094°59'0 0.0
2018-Jan-22 12:26N 29°41' W 094°59'8202218.2
2018-Jan-22 12:04N 25°47' W 080°11'0 0.0
2018-Jan-22 12:00N 25°47' W 080°11'82011141.3
2018-Jan-22 11:56N 29°41' W 094°59'0 0.0
2018-Jan-22 11:17N 29°41' W 094°59'0 0.0
2018-Jan-22 10:56N 29°41' W 094°59'0 0.0
2018-Jan-22 10:26N 29°41' W 094°59'0 0.0
2018-Jan-22 09:50N 29°41' W 094°59'0 0.0
2018-Jan-22 09:26N 29°41' W 094°59'0 0.0
2018-Jan-22 08:56N 29°41' W 094°59'0 0.0
2018-Jan-22 08:26N 29°41' W 094°59'8202174.1
2018-Jan-22 08:03N 25°47' W 080°11'0 0.0
2018-Jan-22 08:00N 25°47' W 080°11'8206634.7
2018-Jan-22 07:53N 29°41' W 094°59'0 0.0
2018-Jan-22 06:53N 29°41' W 094°59'0 0.0
2018-Jan-22 06:02N 29°41' W 094°59'0 0.0
2018-Jan-22 05:50N 29°41' W 094°59'0 0.0
2018-Jan-22 05:26N 29°41' W 094°59'0 0.0
2018-Jan-22 04:44N 29°41' W 094°59'0 0.0
2018-Jan-22 04:26N 29°41' W 094°59'0 0.0
2018-Jan-22 03:56N 29°41' W 094°59'0 0.0
2018-Jan-22 03:26N 29°41' W 094°59'0 0.0
2018-Jan-22 02:50N 29°41' W 094°59'0 0.0
2018-Jan-22 02:20N 29°41' W 094°59'0 0.0
2018-Jan-22 01:50N 29°41' W 094°59'0 0.0
2018-Jan-22 00:56N 29°41' W 094°59'820512.6
2018-Jan-21 23:20N 25°47' W 080°11'0 0.9
2018-Jan-21 22:59N 25°47' W 080°11'8203168.9
2018-Jan-21 22:44N 29°41' W 094°59'8203505.9
2018-Jan-21 22:30N 25°47' W 080°11'4 7.1
2018-Jan-21 21:59N 25°44' W 080°11'1 1.4
2018-Jan-21 21:28N 25°43' W 080°12'821337.7
2018-Jan-21 19:02N 29°41' W 094°59'0 0.0
2018-Jan-21 18:50N 29°41' W 094°59'0 0.0
2018-Jan-21 18:14N 29°41' W 094°59'0 0.0
2018-Jan-21 17:56N 29°41' W 094°59'820195.0
2018-Jan-21 13:44N 25°47' W 080°11'0 0.0
2018-Jan-21 13:29N 25°47' W 080°11'0 0.0
2018-Jan-21 12:56N 25°47' W 080°11'0 0.0
2018-Jan-21 00:39N 25°47' W 080°11'0 0.0
2018-Jan-20 23:00N 25°47' W 080°11'610.2
2018-Jan-20 22:22N 25°41' W 080°10'0 0.0
2018-Jan-20 21:37N 25°41' W 080°10'0 2.9
2018-Jan-20 21:30N 25°41' W 080°10'612.0
2018-Jan-20 21:00N 25°46' W 080°09'1 1.8
2018-Jan-20 20:30N 25°46' W 080°09'2 0.2
2018-Jan-20 13:00N 25°47' W 080°11'0 0.0
2018-Jan-19 13:25N 25°47' W 080°11'0 0.0
2018-Jan-19 11:32N 25°47' W 080°11'0 0.0
2018-Jan-19 11:29N 25°47' W 080°11'8202759.3
2018-Jan-19 11:11N 29°41' W 094°59'820177.0
2018-Jan-19 06:33N 25°47' W 080°11'0 7.3
2018-Jan-19 06:30N 25°46' W 080°11'82166.5
2018-Jan-18 18:10N 29°41' W 094°59'8201500.1
2018-Jan-18 17:37N 25°47' W 080°11'82124020.4
2018-Jan-18 17:35N 29°41' W 094°60'0 0.2
2018-Jan-18 17:29N 29°41' W 094°60'82349359.2
2018-Jan-18 17:28N 25°46' W 080°09'1 0.9
2018-Jan-18 16:50N 25°46' W 080°09'1 3.6
2018-Jan-18 16:30N 25°47' W 080°09'2 4.1
2018-Jan-18 15:59N 25°47' W 080°11'1 1.1
2018-Jan-18 15:30N 25°47' W 080°11'1 1.2
2018-Jan-18 15:00N 25°47' W 080°11'4 3.9
2018-Jan-18 13:59N 25°51' W 080°09'5 8.9
2018-Jan-18 13:28N 25°47' W 080°11'0 0.3
2018-Jan-18 12:59N 25°47' W 080°11'820328.5
2018-Jan-18 10:30N 29°41' W 094°59'0 0.0
2018-Jan-18 09:09N 29°41' W 094°59'0 0.0
2018-Jan-18 07:54N 29°41' W 094°59'0 0.0
2018-Jan-18 06:57N 29°41' W 094°59'0 0.0
2018-Jan-18 05:03N 29°41' W 094°59'0 0.0
2018-Jan-18 04:39N 29°41' W 094°59'0 0.0
2018-Jan-18 04:27N 29°41' W 094°59'0 0.0
2018-Jan-18 03:57N 29°41' W 094°59'0 0.0
2018-Jan-18 03:21N 29°41' W 094°59'0 0.0
2018-Jan-18 02:51N 29°41' W 094°59'0 0.0
2018-Jan-18 02:21N 29°41' W 094°59'0 0.0
2018-Jan-18 01:57N 29°41' W 094°59'0 0.0
2018-Jan-18 01:21N 29°41' W 094°59'0 0.0
2018-Jan-18 00:57N 29°41' W 094°59'  

Dump ship's entire track history